Time;durP1;ratioP1;P1;durP2;ratioP2;P2;SDS_P1;SDS_P2;PMS_P1;PMS_P2;Temp;Humidity;BMP_temperature;BMP_pressure;BME280_temperature;BME280_humidity;BME280_pressure;Samples;Min_cycle;Max_cycle;Signal;HPM_P1;HPM_P2
2022/04/28 00:00:47;;;;;;;12.80;11.50;;;;;;;;;;5086069;28;25185;-47
2022/04/28 00:03:13;;;;;;;12.13;11.02;;;;;;;;;;5085872;28;24472;-47
2022/04/28 00:05:38;;;;;;;12.83;11.63;;;;;;;;;;5084159;28;24850;-47
2022/04/28 00:08:04;;;;;;;12.47;11.33;;;;;;;;;;5084062;28;24832;-48
2022/04/28 00:10:29;;;;;;;12.00;10.90;;;;;;;;;;5085877;28;24448;-47
2022/04/28 00:12:54;;;;;;;12.50;11.30;;;;;;;;;;5087005;28;24839;-48
2022/04/28 00:15:19;;;;;;;12.60;11.40;;;;;;;;;;5083957;28;24781;-47
2022/04/28 00:17:45;;;;;;;12.37;11.17;;;;;;;;;;5085926;28;24572;-47
2022/04/28 00:20:10;;;;;;;13.13;11.77;;;;;;;;;;5082152;28;24502;-48
2022/04/28 00:22:35;;;;;;;11.80;10.60;;;;;;;;;;5081969;28;25057;-47
2022/04/28 00:25:01;;;;;;;12.30;11.20;;;;;;;;;;5084634;28;24417;-47
2022/04/28 00:27:26;;;;;;;12.32;11.13;;;;;;;;;;5083360;28;24429;-47
2022/04/28 00:29:51;;;;;;;11.87;10.77;;;;;;;;;;5086003;28;24525;-48
2022/04/28 00:32:16;;;;;;;11.85;10.65;;;;;;;;;;5082393;28;24425;-48
2022/04/28 00:34:42;;;;;;;12.57;11.37;;;;;;;;;;5082106;28;24444;-48
2022/04/28 00:37:09;;;;;;;11.40;10.40;;;;;;;;;;5080290;28;24475;-47
2022/04/28 00:39:34;;;;;;;12.00;10.90;;;;;;;;;;5084482;28;24525;-48
2022/04/28 00:41:59;;;;;;;13.15;11.93;;;;;;;;;;5085634;28;24506;-47
2022/04/28 00:44:24;;;;;;;12.77;11.48;;;;;;;;;;5085070;28;24998;-48
2022/04/28 00:46:49;;;;;;;11.98;10.98;;;;;;;;;;5085072;28;24421;-48
2022/04/28 00:52:15;;;;;;;12.15;11.05;;;;;;;;;;5024258;28;24396;-47
2022/04/28 00:54:41;;;;;;;11.90;10.90;;;;;;;;;;5064080;28;24429;-47
2022/04/28 00:57:06;;;;;;;11.33;10.33;;;;;;;;;;5085311;28;24418;-47
2022/04/28 00:59:31;;;;;;;12.10;11.00;;;;;;;;;;5084569;28;24511;-47
2022/04/28 01:01:56;;;;;;;11.40;10.40;;;;;;;;;;5086083;28;24963;-48
2022/04/28 01:04:21;;;;;;;11.80;10.60;;;;;;;;;;5085027;28;24449;-47
2022/04/28 01:06:47;;;;;;;11.83;10.63;;;;;;;;;;5084616;28;24449;-49
2022/04/28 01:09:13;;;;;;;12.33;11.30;;;;;;;;;;5083492;28;24842;-47
2022/04/28 01:11:40;;;;;;;12.00;10.90;;;;;;;;;;5083999;28;24441;-47
2022/04/28 01:14:05;;;;;;;11.23;10.33;;;;;;;;;;5082062;28;24479;-47
2022/04/28 01:16:31;;;;;;;12.38;11.20;;;;;;;;;;5081475;28;24426;-47
2022/04/28 01:18:56;;;;;;;12.10;10.90;;;;;;;;;;5083349;28;24437;-47
2022/04/28 01:21:21;;;;;;;11.57;10.48;;;;;;;;;;5083207;28;24722;-47
2022/04/28 01:23:47;;;;;;;13.83;11.43;;;;;;;;;;5084422;28;24491;-47
2022/04/28 01:26:12;;;;;;;11.40;10.20;;;;;;;;;;5084051;28;24518;-48
2022/04/28 01:28:38;;;;;;;11.90;10.80;;;;;;;;;;5083913;28;24545;-47
2022/04/28 01:31:05;;;;;;;11.60;10.40;;;;;;;;;;5085643;28;24501;-48
2022/04/28 01:33:30;;;;;;;11.10;10.10;;;;;;;;;;5084781;28;24530;-48
2022/04/28 01:35:55;;;;;;;11.83;10.70;;;;;;;;;;5085682;28;24461;-48
2022/04/28 01:38:20;;;;;;;11.00;10.10;;;;;;;;;;5085688;28;24966;-48
2022/04/28 01:40:45;;;;;;;11.03;10.03;;;;;;;;;;5089508;28;24470;-48
2022/04/28 01:43:10;;;;;;;12.40;11.20;;;;;;;;;;5083877;28;24472;-47
2022/04/28 01:45:36;;;;;;;11.02;10.10;;;;;;;;;;5089199;28;24418;-47
2022/04/28 01:48:01;;;;;;;11.45;10.45;;;;;;;;;;5086061;28;24414;-47
2022/04/28 01:50:26;;;;;;;11.90;10.80;;;;;;;;;;5088199;28;24494;-47
2022/04/28 01:55:35;;;;;;;11.80;10.70;;;;;;;;;;5089911;28;24428;-47
2022/04/28 01:58:00;;;;;;;12.07;10.98;;;;;;;;;;5086690;28;24414;-47
2022/04/28 02:00:26;;;;;;;11.43;10.33;;;;;;;;;;5082709;28;24414;-47
2022/04/28 02:02:51;;;;;;;11.80;10.60;;;;;;;;;;5087833;28;24835;-47
2022/04/28 02:05:16;;;;;;;12.20;11.00;;;;;;;;;;5086545;28;24422;-47
2022/04/28 02:07:41;;;;;;;11.70;10.53;;;;;;;;;;5085029;28;24426;-47
2022/04/28 02:10:07;;;;;;;11.53;10.53;;;;;;;;;;5086491;28;24986;-47
2022/04/28 02:12:32;;;;;;;12.40;11.20;;;;;;;;;;5084723;28;24441;-47
2022/04/28 02:14:57;;;;;;;12.10;11.00;;;;;;;;;;5087573;28;24461;-47
2022/04/28 02:17:23;;;;;;;11.70;10.60;;;;;;;;;;5085659;28;24437;-47
2022/04/28 02:19:49;;;;;;;12.18;11.07;;;;;;;;;;5089047;28;24500;-47
2022/04/28 02:22:14;;;;;;;11.18;10.15;;;;;;;;;;5077360;28;24961;-47
2022/04/28 02:24:39;;;;;;;12.20;11.07;;;;;;;;;;5083367;28;24963;-47
2022/04/28 02:27:05;;;;;;;12.63;11.43;;;;;;;;;;5086825;28;24459;-47
2022/04/28 02:29:30;;;;;;;12.35;11.15;;;;;;;;;;5087589;28;25014;-47
2022/04/28 02:31:55;;;;;;;11.20;10.20;;;;;;;;;;5081776;28;24426;-48
2022/04/28 02:34:21;;;;;;;12.60;11.00;;;;;;;;;;5084853;28;24453;-48
2022/04/28 02:36:46;;;;;;;11.63;10.53;;;;;;;;;;5083571;28;24448;-47
2022/04/28 02:39:12;;;;;;;11.67;10.67;;;;;;;;;;5086649;28;24464;-48
2022/04/28 02:41:37;;;;;;;11.20;10.30;;;;;;;;;;5082809;28;24413;-47
2022/04/28 02:44:03;;;;;;;12.10;11.00;;;;;;;;;;5086311;28;24418;-47
2022/04/28 02:46:29;;;;;;;11.77;10.67;;;;;;;;;;5085169;28;24503;-48
2022/04/28 02:48:54;;;;;;;11.13;10.10;;;;;;;;;;5082144;28;24433;-47
2022/04/28 02:51:20;;;;;;;10.77;9.88;;;;;;;;;;5084089;28;24433;-48
2022/04/28 02:53:45;;;;;;;11.63;10.63;;;;;;;;;;5084306;28;24993;-48
2022/04/28 02:56:10;;;;;;;11.60;10.50;;;;;;;;;;5085119;28;24425;-48
2022/04/28 02:58:35;;;;;;;10.90;9.90;;;;;;;;;;5088233;28;24422;-48
2022/04/28 03:01:01;;;;;;;11.80;10.60;;;;;;;;;;5084090;28;24418;-48
2022/04/28 03:03:26;;;;;;;10.80;9.80;;;;;;;;;;5085400;28;24790;-47
2022/04/28 03:11:20;;;;;;;11.27;10.27;;;;;;;;;;5083492;28;24436;-48
2022/04/28 03:13:45;;;;;;;11.05;10.05;;;;;;;;;;5086809;28;24418;-47
2022/04/28 03:16:10;;;;;;;10.23;9.43;;;;;;;;;;5085449;28;24460;-47
2022/04/28 03:18:35;;;;;;;10.50;9.60;;;;;;;;;;5084766;28;24487;-47
2022/04/28 03:21:01;;;;;;;10.63;9.73;;;;;;;;;;5085256;28;24418;-47
2022/04/28 03:23:26;;;;;;;11.40;10.38;;;;;;;;;;5086714;28;24410;-47
2022/04/28 03:25:51;;;;;;;10.55;9.55;;;;;;;;;;5078507;28;24824;-48
2022/04/28 03:28:17;;;;;;;11.60;10.50;;;;;;;;;;5020124;28;1793073;-48
2022/04/28 03:30:43;;;;;;;10.82;9.85;;;;;;;;;;5081058;28;24501;-48
2022/04/28 03:33:08;;;;;;;11.20;10.10;;;;;;;;;;5086659;28;25166;-48
2022/04/28 03:35:33;;;;;;;11.43;10.35;;;;;;;;;;5086622;28;24503;-48
2022/04/28 03:37:59;;;;;;;10.90;9.90;;;;;;;;;;5087871;28;25042;-48
2022/04/28 03:40:24;;;;;;;11.00;10.00;;;;;;;;;;5087972;28;24509;-50
2022/04/28 03:42:50;;;;;;;11.73;10.53;;;;;;;;;;5086017;28;24430;-48
2022/04/28 03:45:16;;;;;;;10.80;9.90;;;;;;;;;;5084050;28;24513;-48
2022/04/28 03:47:41;;;;;;;11.40;10.30;;;;;;;;;;5086686;28;24426;-48
2022/04/28 03:50:07;;;;;;;12.00;10.80;;;;;;;;;;5080393;28;24473;-47
2022/04/28 03:52:32;;;;;;;10.95;9.95;;;;;;;;;;5078582;28;24430;-47
2022/04/28 03:54:57;;;;;;;11.07;10.17;;;;;;;;;;5073861;28;24522;-47
2022/04/28 03:57:22;;;;;;;10.70;9.80;;;;;;;;;;5083923;28;24445;-47
2022/04/28 03:59:48;;;;;;;10.70;9.80;;;;;;;;;;5083833;28;24461;-47
2022/04/28 04:02:13;;;;;;;10.90;9.90;;;;;;;;;;5086184;28;24470;-47
2022/04/28 04:04:39;;;;;;;11.10;10.20;;;;;;;;;;5084033;28;26981;-47
2022/04/28 04:07:05;;;;;;;12.43;11.13;;;;;;;;;;5081162;28;24418;-47
2022/04/28 04:09:30;;;;;;;10.83;9.90;;;;;;;;;;5085903;28;25028;-48
2022/04/28 04:11:55;;;;;;;10.30;9.40;;;;;;;;;;5085630;28;24479;-48
2022/04/28 04:14:20;;;;;;;10.33;9.43;;;;;;;;;;5085775;28;24418;-48
2022/04/28 04:16:45;;;;;;;10.20;9.30;;;;;;;;;;5084800;28;24422;-48
2022/04/28 04:19:11;;;;;;;9.83;9.03;;;;;;;;;;5084107;28;24553;-48
2022/04/28 04:21:36;;;;;;;11.10;10.10;;;;;;;;;;5083081;28;25384;-48
2022/04/28 04:24:01;;;;;;;10.40;9.50;;;;;;;;;;5077335;28;24429;-48
2022/04/28 04:26:26;;;;;;;12.77;11.57;;;;;;;;;;5080262;28;24525;-48
2022/04/28 04:28:51;;;;;;;11.73;10.63;;;;;;;;;;5084545;28;24446;-48
2022/04/28 04:34:00;;;;;;;10.23;9.43;;;;;;;;;;5077834;28;24966;-48
2022/04/28 04:36:26;;;;;;;11.43;10.33;;;;;;;;;;5084348;28;24406;-48
2022/04/28 04:38:51;;;;;;;12.57;11.27;;;;;;;;;;5084290;28;25187;-48
2022/04/28 04:41:16;;;;;;;11.68;10.57;;;;;;;;;;5080947;28;24800;-48
2022/04/28 04:43:41;;;;;;;11.20;10.10;;;;;;;;;;5083254;28;24899;-48
2022/04/28 04:46:07;;;;;;;11.80;10.70;;;;;;;;;;5082998;28;24497;-46
2022/04/28 04:48:32;;;;;;;12.47;11.17;;;;;;;;;;5079832;28;24887;-48
2022/04/28 04:50:57;;;;;;;11.55;10.48;;;;;;;;;;5080891;28;24575;-47
2022/04/28 04:53:22;;;;;;;11.00;10.00;;;;;;;;;;5070972;28;24418;-47
2022/04/28 04:55:48;;;;;;;11.70;10.70;;;;;;;;;;5082434;28;24398;-48
2022/04/28 04:58:13;;;;;;;11.50;10.50;;;;;;;;;;5079802;28;24429;-48
2022/04/28 05:00:38;;;;;;;12.20;11.10;;;;;;;;;;5081122;28;24934;-47
2022/04/28 05:03:03;;;;;;;12.60;11.50;;;;;;;;;;5080782;28;25129;-47
2022/04/28 05:05:28;;;;;;;11.55;10.45;;;;;;;;;;5082349;28;24425;-47
2022/04/28 05:07:53;;;;;;;11.68;10.50;;;;;;;;;;5081431;28;24455;-47
2022/04/28 05:10:18;;;;;;;10.93;10.03;;;;;;;;;;5061496;28;25585;-47
2022/04/28 05:12:45;;;;;;;10.35;9.45;;;;;;;;;;5075745;28;24429;-47
2022/04/28 05:15:10;;;;;;;10.65;9.68;;;;;;;;;;5081322;28;24486;-46
2022/04/28 05:17:36;;;;;;;11.03;10.03;;;;;;;;;;5078148;28;24474;-48
2022/04/28 05:20:01;;;;;;;10.60;9.60;;;;;;;;;;5082363;28;24994;-47
2022/04/28 05:22:26;;;;;;;9.10;8.30;;;;;;;;;;5082934;28;24493;-47
2022/04/28 05:24:51;;;;;;;8.70;7.90;;;;;;;;;;5085498;28;24422;-47
2022/04/28 05:27:17;;;;;;;9.10;8.30;;;;;;;;;;5084416;28;24410;-48
2022/04/28 05:29:42;;;;;;;8.13;7.53;;;;;;;;;;5086558;28;24511;-48
2022/04/28 05:32:07;;;;;;;9.50;8.70;;;;;;;;;;5083587;28;24491;-48
2022/04/28 05:34:32;;;;;;;8.17;7.47;;;;;;;;;;5085495;28;24426;-48
2022/04/28 05:36:58;;;;;;;8.63;7.93;;;;;;;;;;5086790;28;24399;-48
2022/04/28 05:39:23;;;;;;;8.40;7.70;;;;;;;;;;5086447;28;24474;-48
2022/04/28 05:41:48;;;;;;;8.43;7.73;;;;;;;;;;5086147;28;24389;-47
2022/04/28 05:46:59;;;;;;;8.90;8.10;;;;;;;;;;5036147;28;24476;-48
2022/04/28 05:49:24;;;;;;;9.88;8.80;;;;;;;;;;5084944;28;24831;-49
2022/04/28 05:51:52;;;;;;;9.00;8.20;;;;;;;;;;5086096;28;24425;-48
2022/04/28 05:54:18;;;;;;;8.50;7.70;;;;;;;;;;5080188;28;24429;-48
2022/04/28 05:56:43;;;;;;;10.63;9.53;;;;;;;;;;5085796;28;24565;-48
2022/04/28 05:59:10;;;;;;;10.03;9.13;;;;;;;;;;5086931;28;24940;-48
2022/04/28 06:01:35;;;;;;;9.23;8.52;;;;;;;;;;5084685;28;24458;-47
2022/04/28 06:04:00;;;;;;;10.07;9.13;;;;;;;;;;5082121;28;24534;-48
2022/04/28 06:06:25;;;;;;;9.40;8.40;;;;;;;;;;5083203;28;24476;-52
2022/04/28 06:08:50;;;;;;;8.55;7.75;;;;;;;;;;5065699;28;24928;-48
2022/04/28 06:11:15;;;;;;;8.73;7.93;;;;;;;;;;5072333;28;24418;-46
2022/04/28 06:13:41;;;;;;;8.80;7.90;;;;;;;;;;5085671;28;24406;-48
2022/04/28 06:16:06;;;;;;;8.40;7.80;;;;;;;;;;5081945;28;25042;-48
2022/04/28 06:18:31;;;;;;;8.57;7.87;;;;;;;;;;5083934;28;24422;-50
2022/04/28 06:20:56;;;;;;;8.43;7.73;;;;;;;;;;5085716;28;25012;-47
2022/04/28 06:23:22;;;;;;;8.73;7.82;;;;;;;;;;5079530;28;24479;-47
2022/04/28 06:25:47;;;;;;;8.10;7.40;;;;;;;;;;5085604;28;24603;-48
2022/04/28 06:28:14;;;;;;;8.00;7.20;;;;;;;;;;5086405;28;24503;-47
2022/04/28 06:30:39;;;;;;;8.52;7.72;;;;;;;;;;5086607;28;24410;-47
2022/04/28 06:33:04;;;;;;;9.43;8.53;;;;;;;;;;5089984;28;24389;-47
2022/04/28 06:35:30;;;;;;;7.80;7.10;;;;;;;;;;5074851;28;25058;-48
2022/04/28 06:37:55;;;;;;;7.83;7.23;;;;;;;;;;5069822;28;24965;-47
2022/04/28 06:40:20;;;;;;;8.40;7.80;;;;;;;;;;5070106;28;24415;-47
2022/04/28 06:42:49;;;;;;;8.10;7.40;;;;;;;;;;5083947;28;24601;-47
2022/04/28 06:45:15;;;;;;;9.27;8.38;;;;;;;;;;5090225;28;24394;-47
2022/04/28 06:47:40;;;;;;;8.20;7.60;;;;;;;;;;5089473;28;24935;-47
2022/04/28 06:50:05;;;;;;;7.88;7.28;;;;;;;;;;5089970;28;24473;-49
2022/04/28 06:52:30;;;;;;;9.43;8.63;;;;;;;;;;5089658;28;24472;-47
2022/04/28 06:54:56;;;;;;;9.60;8.80;;;;;;;;;;5088133;28;24422;-47
2022/04/28 06:57:21;;;;;;;8.57;7.87;;;;;;;;;;5089173;28;24916;-47
2022/04/28 06:59:46;;;;;;;10.27;9.43;;;;;;;;;;5089236;28;24414;-48
2022/04/28 07:02:11;;;;;;;9.13;8.32;;;;;;;;;;5089551;28;24440;-48
2022/04/28 07:04:37;;;;;;;8.65;7.90;;;;;;;;;;5088069;28;24416;-48
2022/04/28 07:07:02;;;;;;;8.30;7.60;;;;;;;;;;5089774;28;24455;-48
2022/04/28 07:09:27;;;;;;;8.00;7.30;;;;;;;;;;5089791;28;24532;-48
2022/04/28 07:11:52;;;;;;;8.60;7.80;;;;;;;;;;5089272;28;24804;-48
2022/04/28 07:14:17;;;;;;;8.13;7.43;;;;;;;;;;5088250;28;24506;-47
2022/04/28 07:16:43;;;;;;;8.03;7.33;;;;;;;;;;5088460;28;24823;-48
2022/04/28 07:19:08;;;;;;;9.37;8.47;;;;;;;;;;5088868;28;24528;-48
2022/04/28 07:21:34;;;;;;;8.20;7.40;;;;;;;;;;5089344;28;24390;-48
2022/04/28 07:23:59;;;;;;;8.85;8.15;;;;;;;;;;5086786;28;25049;-48
2022/04/28 07:26:24;;;;;;;8.50;7.70;;;;;;;;;;5088846;28;24491;-47
2022/04/28 07:28:50;;;;;;;11.13;10.23;;;;;;;;;;5088739;28;24524;-48
2022/04/28 07:31:15;;;;;;;9.17;8.37;;;;;;;;;;5088975;28;24390;-47
2022/04/28 07:33:40;;;;;;;8.48;7.63;;;;;;;;;;5086619;28;24568;-47
2022/04/28 07:36:05;;;;;;;8.50;7.80;;;;;;;;;;5088892;28;24810;-48
2022/04/28 07:38:30;;;;;;;9.30;8.50;;;;;;;;;;5088787;28;24406;-48
2022/04/28 07:40:55;;;;;;;8.80;8.00;;;;;;;;;;5088336;28;24394;-48
2022/04/28 07:43:21;;;;;;;8.97;8.17;;;;;;;;;;5086695;28;24514;-48
2022/04/28 07:45:46;;;;;;;8.73;8.03;;;;;;;;;;5087274;28;24445;-48
2022/04/28 07:48:11;;;;;;;8.93;8.20;;;;;;;;;;5088987;28;24757;-48
2022/04/28 07:50:36;;;;;;;10.75;9.75;;;;;;;;;;5088640;28;24402;-48
2022/04/28 07:53:01;;;;;;;10.30;9.40;;;;;;;;;;5088389;28;24470;-48
2022/04/28 07:55:27;;;;;;;8.70;8.00;;;;;;;;;;5088349;28;24908;-48
2022/04/28 07:57:52;;;;;;;10.77;9.73;;;;;;;;;;5087219;28;24948;-46
2022/04/28 08:00:17;;;;;;;9.83;9.03;;;;;;;;;;5087295;28;24499;-47
2022/04/28 08:02:42;;;;;;;9.63;8.83;;;;;;;;;;5086898;28;24429;-47
2022/04/28 08:05:08;;;;;;;10.97;9.90;;;;;;;;;;5088467;28;24394;-47
2022/04/28 08:07:33;;;;;;;11.00;10.10;;;;;;;;;;5088359;28;24394;-48
2022/04/28 08:09:59;;;;;;;12.63;10.43;;;;;;;;;;5086722;28;24841;-48
2022/04/28 08:12:24;;;;;;;10.77;9.77;;;;;;;;;;5087794;28;24421;-48
2022/04/28 08:14:49;;;;;;;10.10;9.30;;;;;;;;;;5088175;28;24432;-48
2022/04/28 08:17:15;;;;;;;9.75;8.95;;;;;;;;;;5088020;28;24745;-47
2022/04/28 08:19:40;;;;;;;9.77;8.87;;;;;;;;;;5087891;28;24456;-48
2022/04/28 08:22:05;;;;;;;11.20;10.20;;;;;;;;;;5086886;28;24838;-47
2022/04/28 08:24:30;;;;;;;10.70;9.77;;;;;;;;;;5087208;28;24410;-48
2022/04/28 08:26:55;;;;;;;10.30;9.40;;;;;;;;;;5087723;28;24395;-48
2022/04/28 08:29:21;;;;;;;11.50;10.40;;;;;;;;;;5087823;28;25003;-48
2022/04/28 08:31:46;;;;;;;11.93;10.73;;;;;;;;;;5088002;28;24474;-47
2022/04/28 08:34:13;;;;;;;12.53;11.43;;;;;;;;;;5085262;28;24986;-47
2022/04/28 08:36:38;;;;;;;11.30;10.40;;;;;;;;;;5087889;28;24975;-47
2022/04/28 08:39:04;;;;;;;10.70;9.80;;;;;;;;;;5086060;28;24434;-48
2022/04/28 08:41:34;;;;;;;9.97;9.10;;;;;;;;;;5087654;28;24390;-47
2022/04/28 08:44:00;;;;;;;10.67;9.67;;;;;;;;;;5085504;28;25041;-47
2022/04/28 08:49:10;;;;;;;11.73;9.15;;;;;;;;;;5085620;28;24526;-47
2022/04/28 08:51:37;;;;;;;10.70;9.70;;;;;;;;;;5087161;28;24390;-48
2022/04/28 08:54:02;;;;;;;10.40;9.40;;;;;;;;;;5081403;28;24434;-48
2022/04/28 08:56:27;;;;;;;10.20;9.30;;;;;;;;;;5067953;28;24983;-48
2022/04/28 08:58:53;;;;;;;10.57;9.68;;;;;;;;;;5084382;28;24422;-47
2022/04/28 09:01:22;;;;;;;9.52;8.63;;;;;;;;;;5087616;28;24516;-48
2022/04/28 09:03:47;;;;;;;8.90;8.20;;;;;;;;;;5085680;28;24531;-48
2022/04/28 09:06:23;;;;;;;8.75;7.95;;;;;;;;;;5087096;28;24417;-48
2022/04/28 09:08:49;;;;;;;8.60;7.80;;;;;;;;;;5084251;28;24461;-48
2022/04/28 09:11:21;;;;;;;8.90;8.10;;;;;;;;;;5087453;28;24802;-48
2022/04/28 09:14:11;;;;;;;8.07;7.30;;;;;;;;;;5085372;28;24425;-48
2022/04/28 09:16:59;;;;;;;8.82;7.93;;;;;;;;;;5087369;28;24436;-48
2022/04/28 09:19:26;;;;;;;8.40;7.60;;;;;;;;;;5085519;28;25006;-48
2022/04/28 09:21:53;;;;;;;7.55;6.85;;;;;;;;;;5085670;28;24429;-48
2022/04/28 09:24:18;;;;;;;8.30;7.40;;;;;;;;;;5085693;28;25043;-48
2022/04/28 09:26:44;;;;;;;6.63;6.03;;;;;;;;;;5086822;28;24498;-48
2022/04/28 09:29:10;;;;;;;7.50;6.80;;;;;;;;;;5085127;28;24994;-48
2022/04/28 09:31:37;;;;;;;6.25;5.70;;;;;;;;;;5086764;28;24507;-48
2022/04/28 09:34:09;;;;;;;7.47;6.88;;;;;;;;;;5083558;28;24500;-47
2022/04/28 09:36:35;;;;;;;6.70;6.00;;;;;;;;;;5086983;28;24394;-47
2022/04/28 09:39:01;;;;;;;7.78;7.10;;;;;;;;;;5085505;28;24430;-47
2022/04/28 09:44:12;;;;;;;9.20;8.30;;;;;;;;;;5084579;28;24540;-47
2022/04/28 09:46:41;;;;;;;8.50;7.90;;;;;;;;;;5085891;28;25027;-47
2022/04/28 09:49:07;;;;;;;9.20;8.45;;;;;;;;;;5084958;28;24944;-47
2022/04/28 09:51:35;;;;;;;9.43;8.63;;;;;;;;;;5087026;28;24510;-47
2022/04/28 09:54:02;;;;;;;8.68;7.78;;;;;;;;;;5084807;28;24503;-47
2022/04/28 09:56:28;;;;;;;9.23;8.43;;;;;;;;;;5086233;28;24495;-47
2022/04/28 09:58:54;;;;;;;8.10;7.40;;;;;;;;;;5087682;28;24791;-47
2022/04/28 10:01:20;;;;;;;10.52;9.63;;;;;;;;;;5090694;28;24938;-48
2022/04/28 10:03:45;;;;;;;9.00;8.27;;;;;;;;;;5089422;28;24422;-47
2022/04/28 10:06:11;;;;;;;7.75;7.05;;;;;;;;;;5090718;28;24390;-48
2022/04/28 10:08:37;;;;;;;8.90;7.60;;;;;;;;;;5088837;28;24430;-47
2022/04/28 10:11:04;;;;;;;9.03;8.13;;;;;;;;;;5089102;28;24787;-47
2022/04/28 10:13:30;;;;;;;8.47;7.77;;;;;;;;;;5088698;28;24434;-47
2022/04/28 10:15:56;;;;;;;9.03;8.27;;;;;;;;;;5090186;28;24831;-48
2022/04/28 10:18:23;;;;;;;10.05;9.05;;;;;;;;;;5089026;28;24425;-48
2022/04/28 10:20:50;;;;;;;8.30;7.50;;;;;;;;;;5090017;28;24405;-47
2022/04/28 10:23:17;;;;;;;9.18;8.38;;;;;;;;;;5077867;28;24475;-47
2022/04/28 10:34:13;;;;;;;8.70;8.00;;;;;;;;;;5090255;28;24393;-47
2022/04/28 10:36:55;;;;;;;7.78;7.18;;;;;;;;;;5088807;28;24849;-47
2022/04/28 10:39:39;;;;;;;9.10;8.30;;;;;;;;;;5089917;28;24429;-47
2022/04/28 10:42:34;;;;;;;9.52;8.70;;;;;;;;;;5089619;28;25002;-47
2022/04/28 10:45:00;;;;;;;9.35;8.55;;;;;;;;;;5080016;28;24410;-47
2022/04/28 10:47:36;;;;;;;9.45;8.65;;;;;;;;;;5088646;28;24740;-48
2022/04/28 10:50:01;;;;;;;8.80;8.00;;;;;;;;;;5088526;28;24772;-47
2022/04/28 10:52:26;;;;;;;9.07;8.27;;;;;;;;;;5089764;28;24912;-47
2022/04/28 10:54:59;;;;;;;8.47;7.83;;;;;;;;;;5088906;28;24432;-47
2022/04/28 10:57:37;;;;;;;10.68;9.68;;;;;;;;;;5089718;28;24432;-47
2022/04/28 11:00:03;;;;;;;9.18;8.27;;;;;;;;;;5088874;28;24438;-47
2022/04/28 11:02:28;;;;;;;8.00;7.20;;;;;;;;;;5089265;28;24696;-47
2022/04/28 11:05:04;;;;;;;9.30;8.40;;;;;;;;;;5089230;28;24474;-47
2022/04/28 11:07:30;;;;;;;10.48;9.48;;;;;;;;;;5089139;28;24390;-47
2022/04/28 11:10:03;;;;;;;10.55;9.65;;;;;;;;;;5089131;28;24435;-48
2022/04/28 11:12:33;;;;;;;10.43;9.63;;;;;;;;;;5087849;28;25218;-48
2022/04/28 11:14:59;;;;;;;11.90;10.73;;;;;;;;;;5088890;28;24513;-47
2022/04/28 11:17:25;;;;;;;12.52;11.50;;;;;;;;;;5089226;28;24976;-47
2022/04/28 11:19:50;;;;;;;11.60;10.60;;;;;;;;;;5088907;28;24426;-46
2022/04/28 11:22:15;;;;;;;11.57;10.57;;;;;;;;;;5087702;28;24487;-46
2022/04/28 11:24:44;;;;;;;12.27;11.02;;;;;;;;;;5088824;28;24785;-47
2022/04/28 11:27:18;;;;;;;13.20;12.00;;;;;;;;;;5088935;28;24398;-46
2022/04/28 11:29:43;;;;;;;11.20;10.20;;;;;;;;;;5088695;28;24436;-46
2022/04/28 11:32:09;;;;;;;13.73;12.50;;;;;;;;;;5088925;28;24399;-46
2022/04/28 11:34:34;;;;;;;11.37;10.37;;;;;;;;;;5087421;28;24426;-46
2022/04/28 11:37:15;;;;;;;11.03;10.03;;;;;;;;;;5088847;28;24440;-46
2022/04/28 11:39:45;;;;;;;12.52;11.32;;;;;;;;;;5088664;28;24402;-46
2022/04/28 11:42:12;;;;;;;12.68;11.68;;;;;;;;;;5088460;28;24383;-46
2022/04/28 11:44:59;;;;;;;12.70;11.45;;;;;;;;;;5086668;28;24426;-46
2022/04/28 11:47:25;;;;;;;13.07;11.98;;;;;;;;;;5088759;28;24627;-47
2022/04/28 11:49:57;;;;;;;13.57;12.20;;;;;;;;;;5088741;28;25219;-46
2022/04/28 11:52:23;;;;;;;13.48;12.20;;;;;;;;;;5088488;28;24428;-47
2022/04/28 11:54:56;;;;;;;13.25;12.15;;;;;;;;;;5087128;28;24815;-47
2022/04/28 11:57:22;;;;;;;11.90;10.90;;;;;;;;;;5088400;28;24491;-47
2022/04/28 11:59:47;;;;;;;10.98;10.07;;;;;;;;;;5087163;28;24433;-47
2022/04/28 12:02:29;;;;;;;11.90;10.90;;;;;;;;;;5086215;28;24482;-47
2022/04/28 12:04:57;;;;;;;11.88;10.77;;;;;;;;;;5084880;28;24509;-47
2022/04/28 12:07:29;;;;;;;11.60;10.60;;;;;;;;;;5087811;28;24737;-48
2022/04/28 12:15:22;;;;;;;12.30;11.20;;;;;;;;;;5086618;28;24437;-47
2022/04/28 12:20:54;;;;;;;12.00;10.80;;;;;;;;;;5087685;28;24431;-47
2022/04/28 12:23:29;;;;;;;12.25;11.15;;;;;;;;;;5086553;28;24429;-47
2022/04/28 12:26:02;;;;;;;12.23;11.13;;;;;;;;;;5086139;28;24424;-47
2022/04/28 12:28:33;;;;;;;11.65;10.65;;;;;;;;;;5087825;28;24417;-47
2022/04/28 12:30:59;;;;;;;11.90;10.90;;;;;;;;;;5086162;28;24425;-47
2022/04/28 12:33:28;;;;;;;10.27;9.38;;;;;;;;;;5085666;28;24426;-47
2022/04/28 12:35:56;;;;;;;11.90;10.90;;;;;;;;;;5084808;28;24418;-47
2022/04/28 12:38:28;;;;;;;13.30;12.10;;;;;;;;;;5081927;28;24421;-47
2022/04/28 12:40:54;;;;;;;12.52;11.32;;;;;;;;;;5084947;28;25049;-47
2022/04/28 12:43:37;;;;;;;11.90;10.90;;;;;;;;;;5085310;28;24403;-46
2022/04/28 12:46:03;;;;;;;10.07;9.17;;;;;;;;;;5066826;28;24411;-47
2022/04/28 12:48:28;;;;;;;12.00;10.85;;;;;;;;;;5067091;28;24426;-46
2022/04/28 12:51:12;;;;;;;12.10;11.10;;;;;;;;;;5076171;28;25228;-46
2022/04/28 12:53:38;;;;;;;11.80;10.82;;;;;;;;;;5086903;28;25293;-46
2022/04/28 12:56:07;;;;;;;11.85;10.85;;;;;;;;;;5087254;28;24398;-46
2022/04/28 12:58:37;;;;;;;11.40;10.40;;;;;;;;;;5087962;28;24589;-46
2022/04/28 13:01:02;;;;;;;12.55;11.35;;;;;;;;;;5084536;28;24418;-47
2022/04/28 13:03:28;;;;;;;13.50;12.20;;;;;;;;;;5086181;28;25038;-46
2022/04/28 13:05:53;;;;;;;12.90;11.80;;;;;;;;;;5084826;28;24837;-46
2022/04/28 13:08:18;;;;;;;12.75;11.57;;;;;;;;;;5086922;28;24394;-46
2022/04/28 13:10:44;;;;;;;11.50;9.30;;;;;;;;;;5085718;28;24941;-47
2022/04/28 13:13:09;;;;;;;10.60;9.60;;;;;;;;;;5085867;28;24438;-46
2022/04/28 13:15:34;;;;;;;10.15;9.25;;;;;;;;;;5086953;28;24410;-47
2022/04/28 13:17:59;;;;;;;10.13;9.13;;;;;;;;;;5086894;28;24474;-47
2022/04/28 13:20:24;;;;;;;10.20;9.40;;;;;;;;;;5086579;28;24414;-47
2022/04/28 13:22:49;;;;;;;9.87;8.97;;;;;;;;;;5084780;28;24477;-47
2022/04/28 13:25:16;;;;;;;10.40;9.50;;;;;;;;;;5078056;28;24423;-47
2022/04/28 13:27:41;;;;;;;11.37;10.37;;;;;;;;;;5084034;28;24425;-47
2022/04/28 13:30:07;;;;;;;11.40;10.20;;;;;;;;;;5085754;28;24434;-47
2022/04/28 13:32:32;;;;;;;11.80;10.80;;;;;;;;;;5088071;28;24434;-46
2022/04/28 13:34:57;;;;;;;10.70;9.70;;;;;;;;;;5086387;28;24619;-47
2022/04/28 13:37:22;;;;;;;10.50;9.60;;;;;;;;;;5086456;28;24589;-47
2022/04/28 13:39:47;;;;;;;11.17;10.20;;;;;;;;;;5089542;28;24463;-47
2022/04/28 13:42:13;;;;;;;11.55;10.35;;;;;;;;;;5090863;28;24403;-47
2022/04/28 13:44:38;;;;;;;10.07;9.07;;;;;;;;;;5090847;28;24437;-47
2022/04/28 13:47:04;;;;;;;10.30;9.43;;;;;;;;;;5087503;28;24418;-48
2022/04/28 13:49:29;;;;;;;8.93;8.15;;;;;;;;;;5090674;28;24467;-48
2022/04/28 13:51:55;;;;;;;9.13;8.32;;;;;;;;;;5090465;28;24455;-47
2022/04/28 13:54:20;;;;;;;9.00;8.20;;;;;;;;;;5090377;28;24440;-47
2022/04/28 13:56:45;;;;;;;7.88;7.13;;;;;;;;;;5087550;28;24419;-47
2022/04/28 13:59:10;;;;;;;9.90;8.93;;;;;;;;;;5089364;28;24425;-47
2022/04/28 14:01:37;;;;;;;9.87;8.87;;;;;;;;;;5089283;28;24773;-48
2022/04/28 14:04:03;;;;;;;8.55;7.85;;;;;;;;;;5070602;28;24436;-48
2022/04/28 14:06:28;;;;;;;9.63;8.70;;;;;;;;;;5088206;28;24481;-48
2022/04/28 14:08:53;;;;;;;9.60;8.80;;;;;;;;;;5085848;28;24427;-47
2022/04/28 14:11:18;;;;;;;9.70;8.75;;;;;;;;;;5089633;28;24440;-47
2022/04/28 14:13:44;;;;;;;9.77;8.88;;;;;;;;;;5090146;28;24397;-47
2022/04/28 14:16:09;;;;;;;11.50;10.37;;;;;;;;;;5088024;28;24457;-47
2022/04/28 14:18:34;;;;;;;9.25;8.35;;;;;;;;;;5087094;28;24509;-47
2022/04/28 14:20:59;;;;;;;9.87;8.97;;;;;;;;;;5088261;28;24469;-48
2022/04/28 14:23:25;;;;;;;10.60;9.60;;;;;;;;;;5087937;28;24475;-47
2022/04/28 14:25:50;;;;;;;10.48;9.48;;;;;;;;;;5081382;28;24418;-47
2022/04/28 14:28:16;;;;;;;8.90;8.00;;;;;;;;;;5088696;28;24467;-47
2022/04/28 14:30:42;;;;;;;8.80;8.10;;;;;;;;;;5088007;28;24459;-48
2022/04/28 14:33:08;;;;;;;9.60;8.70;;;;;;;;;;5080884;28;24850;-50
2022/04/28 14:35:34;;;;;;;12.20;11.10;;;;;;;;;;5076590;28;24517;-46
2022/04/28 14:37:59;;;;;;;10.57;9.65;;;;;;;;;;5079151;28;24488;-46
2022/04/28 14:40:24;;;;;;;10.10;9.20;;;;;;;;;;5072506;28;24426;-47
2022/04/28 14:42:51;;;;;;;10.80;9.80;;;;;;;;;;5088241;28;24979;-47
2022/04/28 14:45:17;;;;;;;10.98;10.07;;;;;;;;;;5089953;28;24394;-47
2022/04/28 14:47:42;;;;;;;10.98;9.35;;;;;;;;;;5088487;28;24469;-48
2022/04/28 14:52:51;;;;;;;9.48;8.70;;;;;;;;;;5088729;28;24413;-46
2022/04/28 14:55:17;;;;;;;9.82;9.02;;;;;;;;;;5089105;28;24485;-46
2022/04/28 14:57:43;;;;;;;10.20;9.30;;;;;;;;;;5087853;28;24528;-47
2022/04/28 15:00:15;;;;;;;9.40;8.60;;;;;;;;;;5085296;28;24563;-47
2022/04/28 15:02:40;;;;;;;8.30;7.60;;;;;;;;;;5088216;28;24505;-46
2022/04/28 15:05:06;;;;;;;8.03;7.43;;;;;;;;;;5087356;28;24622;-46